createdAt,value
2018-08-16T00:01:01.128Z,98899.00
2018-08-16T00:03:31.342Z,98902.00
2018-08-16T00:06:01.342Z,98904.00
2018-08-16T00:08:30.842Z,98903.00
2018-08-16T00:11:00.962Z,98902.00
2018-08-16T00:13:30.582Z,98901.00
2018-08-16T00:16:00.102Z,98900.00
2018-08-16T00:18:30.042Z,98894.00
2018-08-16T00:20:59.562Z,98899.00
2018-08-16T00:23:29.500Z,98892.00
2018-08-16T00:25:59.282Z,98891.00
2018-08-16T00:28:28.882Z,98892.00
2018-08-16T00:30:58.442Z,98892.00
2018-08-16T00:33:28.022Z,98889.00
2018-08-16T00:35:57.803Z,98889.00
2018-08-16T00:38:27.282Z,98882.00
2018-08-16T00:40:56.782Z,98889.00
2018-08-16T00:43:26.682Z,98890.00
2018-08-16T00:45:56.244Z,98891.00
2018-08-16T00:48:25.842Z,98879.00
2018-08-16T00:50:55.490Z,98882.00
2018-08-16T00:53:25.042Z,98881.00
2018-08-16T00:55:54.502Z,98891.00
2018-08-16T00:58:24.242Z,98879.00
2018-08-16T01:00:53.822Z,98879.00
2018-08-16T01:03:23.362Z,98888.00
2018-08-16T01:05:53.182Z,98878.00
2018-08-16T01:08:22.982Z,98877.00
2018-08-16T01:10:52.529Z,98878.00
2018-08-16T01:13:22.039Z,98878.00
2018-08-16T01:15:51.642Z,98875.00
2018-08-16T01:18:21.082Z,98871.00
2018-08-16T01:20:50.662Z,98872.00
2018-08-16T01:23:20.262Z,98863.00
2018-08-16T01:25:49.822Z,98862.00
2018-08-16T01:28:19.342Z,98870.00
2018-08-16T01:30:48.918Z,98862.00
2018-08-16T01:33:18.509Z,98859.00
2018-08-16T01:35:48.603Z,98861.00
2018-08-16T01:38:18.331Z,98859.00
2018-08-16T01:40:48.092Z,98858.00
2018-08-16T01:43:17.662Z,98860.00
2018-08-16T01:45:47.649Z,98864.00
2018-08-16T01:48:17.479Z,98864.00
2018-08-16T01:50:46.862Z,98866.00
2018-08-16T01:53:16.342Z,98864.00
2018-08-16T01:55:46.402Z,98869.00
2018-08-16T01:58:16.103Z,98868.00
2018-08-16T02:00:45.504Z,98866.00
2018-08-16T02:03:15.042Z,98863.00
2018-08-16T02:05:44.930Z,98864.00
2018-08-16T02:08:14.950Z,98867.00
2018-08-16T02:10:44.685Z,98870.00
2018-08-16T02:13:14.370Z,98869.00
2018-08-16T02:15:43.971Z,98873.00
2018-08-16T02:18:13.490Z,98875.00
2018-08-16T02:20:42.931Z,98871.00
2018-08-16T02:23:12.471Z,98874.00
2018-08-16T02:25:42.050Z,98859.00
2018-08-16T02:28:11.588Z,98863.00
2018-08-16T02:30:41.051Z,98864.00
2018-08-16T02:33:10.571Z,98874.00
2018-08-16T02:35:40.091Z,98874.00
2018-08-16T02:38:09.590Z,98868.00
2018-08-16T02:41:41.729Z,98872.00
2018-08-16T02:44:11.910Z,98872.00
2018-08-16T02:46:41.370Z,98879.00
2018-08-16T02:49:10.910Z,98869.00
2018-08-16T02:51:40.445Z,98869.00
2018-08-16T02:54:10.412Z,98863.00
2018-08-16T02:56:40.170Z,98858.00
2018-08-16T02:59:09.729Z,98858.00
2018-08-16T03:01:39.170Z,98866.00
2018-08-16T03:04:08.869Z,98860.00
2018-08-16T03:06:38.329Z,98859.00
2018-08-16T03:09:10.253Z,98861.00
2018-08-16T03:11:39.751Z,98854.00
2018-08-16T03:14:09.270Z,98860.00
2018-08-16T03:16:38.829Z,98856.00
2018-08-16T03:19:08.309Z,98861.00
2018-08-16T03:21:37.949Z,98862.00
2018-08-16T03:24:07.549Z,98861.00
2018-08-16T03:26:37.150Z,98865.00
2018-08-16T03:29:06.749Z,98861.00
2018-08-16T03:31:36.294Z,98857.00
2018-08-16T03:34:05.950Z,98861.00
2018-08-16T03:36:35.690Z,98860.00
2018-08-16T03:39:07.669Z,98857.00
2018-08-16T03:41:37.789Z,98855.00
2018-08-16T03:44:08.169Z,98858.00
2018-08-16T03:46:37.795Z,98864.00
2018-08-16T03:49:07.270Z,98866.00
2018-08-16T03:51:37.122Z,98862.00
2018-08-16T03:54:06.740Z,98863.00
2018-08-16T03:56:36.572Z,98869.00
2018-08-16T03:59:05.969Z,98875.00
2018-08-16T04:01:35.710Z,98874.00
2018-08-16T04:04:05.270Z,98878.00
2018-08-16T04:06:34.730Z,98874.00
2018-08-16T04:09:06.050Z,98872.00
2018-08-16T04:11:35.770Z,98877.00
2018-08-16T04:14:05.370Z,98874.00
2018-08-16T04:16:35.530Z,98882.00
2018-08-16T04:19:05.210Z,98880.00
2018-08-16T04:21:34.711Z,98879.00
2018-08-16T04:24:04.349Z,98875.00
2018-08-16T04:26:33.909Z,98878.00
2018-08-16T04:29:03.780Z,98881.00
2018-08-16T04:31:33.191Z,98884.00
2018-08-16T04:34:02.789Z,98881.00
2018-08-16T04:36:32.329Z,98878.00
2018-08-16T04:39:01.870Z,98882.00
2018-08-16T04:41:31.707Z,98876.00
2018-08-16T04:44:01.569Z,98877.00
2018-08-16T04:46:31.050Z,98882.00
2018-08-16T04:49:00.550Z,98878.00
2018-08-16T04:51:30.149Z,98867.00
2018-08-16T04:53:59.670Z,98870.00
2018-08-16T04:56:29.229Z,98865.00
2018-08-16T04:58:59.249Z,98866.00
2018-08-16T05:01:28.720Z,98871.00
2018-08-16T05:03:58.330Z,98868.00
2018-08-16T05:06:27.709Z,98874.00
2018-08-16T05:08:57.269Z,98877.00
2018-08-16T05:11:26.749Z,98874.00
2018-08-16T05:13:56.170Z,98871.00
2018-08-16T05:16:25.790Z,98874.00
2018-08-16T05:18:55.490Z,98875.00
2018-08-16T05:21:24.949Z,98874.00
2018-08-16T05:23:54.586Z,98878.00
2018-08-16T05:26:24.230Z,98882.00
2018-08-16T05:28:53.729Z,98884.00
2018-08-16T05:31:23.289Z,98870.00
2018-08-16T05:33:53.169Z,98874.00
2018-08-16T05:36:22.780Z,98870.00
2018-08-16T05:38:52.349Z,98879.00
2018-08-16T05:41:21.912Z,98877.00
2018-08-16T05:43:51.489Z,98878.00
2018-08-16T05:46:21.249Z,98884.00
2018-08-16T05:48:51.110Z,98879.00
2018-08-16T05:51:20.740Z,98874.00
2018-08-16T05:53:50.289Z,98868.00
2018-08-16T05:56:20.674Z,98865.00
2018-08-16T05:58:50.263Z,98865.00
2018-08-16T06:01:19.995Z,98872.00
2018-08-16T06:03:49.714Z,98871.00
2018-08-16T06:06:19.275Z,98872.00
2018-08-16T06:08:48.754Z,98877.00
2018-08-16T06:11:18.236Z,98868.00
2018-08-16T06:13:47.694Z,98870.00
2018-08-16T06:16:17.615Z,98870.00
2018-08-16T06:18:47.694Z,98871.00
2018-08-16T06:21:17.655Z,98871.00
2018-08-16T06:23:47.265Z,98868.00
2018-08-16T06:26:17.014Z,98867.00
2018-08-16T06:28:46.666Z,98868.00
2018-08-16T06:31:16.377Z,98861.00
2018-08-16T06:33:45.795Z,98863.00
2018-08-16T06:36:15.475Z,98860.00
2018-08-16T06:38:45.009Z,98852.00
2018-08-16T06:41:14.735Z,98857.00
2018-08-16T06:43:44.295Z,98858.00
2018-08-16T06:46:13.963Z,98849.00
2018-08-16T06:48:44.135Z,98847.00
2018-08-16T06:51:13.998Z,98852.00
2018-08-16T06:53:43.755Z,98846.00
2018-08-16T06:56:13.381Z,98849.00
2018-08-16T06:58:43.051Z,98851.00
2018-08-16T07:01:12.595Z,98858.00
2018-08-16T07:03:42.135Z,98848.00
2018-08-16T07:06:11.675Z,98850.00
2018-08-16T07:08:41.295Z,98851.00
2018-08-16T07:11:10.895Z,98853.00
2018-08-16T07:13:40.675Z,98848.00
2018-08-16T07:16:10.795Z,98854.00
2018-08-16T07:18:40.397Z,98846.00
2018-08-16T07:21:09.859Z,98849.00
2018-08-16T07:23:39.635Z,98851.00
2018-08-16T07:26:09.855Z,98855.00
2018-08-16T07:28:39.496Z,98849.00
2018-08-16T07:31:09.115Z,98848.00
2018-08-16T07:33:38.835Z,98850.00
2018-08-16T07:36:08.335Z,98849.00
2018-08-16T07:38:38.055Z,98852.00
2018-08-16T07:41:08.115Z,98852.00
2018-08-16T07:43:37.612Z,98844.00
2018-08-16T07:46:07.257Z,98849.00
2018-08-16T07:48:36.728Z,98848.00
2018-08-16T07:51:06.548Z,98847.00
2018-08-16T07:53:36.255Z,98844.00
2018-08-16T07:56:05.895Z,98852.00
2018-08-16T07:58:35.512Z,98847.00
2018-08-16T08:01:05.315Z,98853.00
2018-08-16T08:03:35.135Z,98854.00
2018-08-16T08:06:04.736Z,98854.00
2018-08-16T08:08:34.315Z,98854.00
2018-08-16T08:11:03.911Z,98858.00
2018-08-16T08:13:33.535Z,98855.00
2018-08-16T08:16:03.156Z,98853.00
2018-08-16T08:18:32.915Z,98853.00
2018-08-16T08:21:02.616Z,98853.00
2018-08-16T08:23:32.815Z,98850.00
2018-08-16T08:26:02.836Z,98847.00
2018-08-16T08:28:32.612Z,98848.00
2018-08-16T08:31:02.155Z,98847.00
2018-08-16T08:33:31.895Z,98847.00
2018-08-16T08:36:17.915Z,98839.00
2018-08-16T08:38:47.534Z,98845.00
2018-08-16T08:41:17.588Z,98831.00
2018-08-16T08:44:03.316Z,98840.00
2018-08-16T08:46:32.916Z,98837.00
2018-08-16T08:49:02.615Z,98838.00
2018-08-16T08:51:32.156Z,98835.00
2018-08-16T08:55:10.692Z,98835.00
2018-08-16T08:57:56.436Z,98834.00
2018-08-16T09:00:26.136Z,98842.00
2018-08-16T09:02:55.715Z,98835.00
2018-08-16T09:05:25.775Z,98839.00
2018-08-16T09:07:55.256Z,98842.00
2018-08-16T09:11:21.435Z,98831.00
2018-08-16T09:14:08.046Z,98829.00
2018-08-16T09:16:40.721Z,98826.00
2018-08-16T09:19:11.135Z,98822.00
2018-08-16T09:21:40.775Z,98815.00
2018-08-16T09:24:10.632Z,98812.00
2018-08-16T09:26:41.656Z,98808.00
2018-08-16T09:31:32.733Z,98809.00
2018-08-16T09:34:17.495Z,98796.00
2018-08-16T09:36:47.103Z,98800.00
2018-08-16T09:39:16.950Z,98783.00
2018-08-16T09:41:46.783Z,98791.00
2018-08-16T09:44:16.404Z,98797.00
2018-08-16T09:47:10.124Z,98785.00
2018-08-16T09:49:44.363Z,98787.00
2018-08-16T09:52:14.634Z,98784.00
2018-08-16T09:54:44.285Z,98782.00
2018-08-16T09:57:14.985Z,98763.00
2018-08-16T09:59:44.768Z,98763.00
2018-08-16T10:02:17.261Z,98768.00
2018-08-16T10:04:46.743Z,98762.00
2018-08-16T10:07:16.385Z,98758.00
2018-08-16T10:09:46.063Z,98754.00
2018-08-16T10:12:15.644Z,98753.00
2018-08-16T10:14:45.684Z,98751.00
2018-08-16T10:17:15.265Z,98745.00
2018-08-16T10:19:44.884Z,98747.00
2018-08-16T10:22:14.499Z,98737.00
2018-08-16T10:24:44.184Z,98741.00
2018-08-16T10:27:14.135Z,98736.00
2018-08-16T10:29:43.803Z,98730.00
2018-08-16T10:32:13.264Z,98731.00
2018-08-16T10:34:42.964Z,98731.00
2018-08-16T10:37:12.636Z,98730.00
2018-08-16T10:39:42.204Z,98725.00
2018-08-16T10:42:11.825Z,98718.00
2018-08-16T10:44:41.483Z,98720.00
2018-08-16T10:47:11.099Z,98715.00
2018-08-16T10:49:40.744Z,98709.00
2018-08-16T10:52:10.374Z,98712.00
2018-08-16T10:54:39.884Z,98713.00
2018-08-16T10:57:09.889Z,98709.00
2018-08-16T10:59:39.494Z,98713.00
2018-08-16T11:02:09.015Z,98710.00
2018-08-16T11:04:38.755Z,98705.00
2018-08-16T11:07:08.275Z,98709.00
2018-08-16T11:09:37.835Z,98708.00
2018-08-16T11:12:07.554Z,98701.00
2018-08-16T11:14:37.298Z,98693.00
2018-08-16T11:17:07.140Z,98687.00
2018-08-16T11:19:36.694Z,98684.00
2018-08-16T11:22:06.715Z,98683.00
2018-08-16T11:24:36.255Z,98678.00
2018-08-16T11:27:06.434Z,98681.00
2018-08-16T11:29:35.995Z,98678.00
2018-08-16T11:32:05.775Z,98679.00
2018-08-16T11:34:35.295Z,98672.00
2018-08-16T11:37:04.894Z,98666.00
2018-08-16T11:39:34.471Z,98665.00
2018-08-16T11:42:04.394Z,98659.00
2018-08-16T11:44:33.935Z,98659.00
2018-08-16T11:47:03.735Z,98656.00
2018-08-16T11:49:33.715Z,98661.00
2018-08-16T11:52:03.375Z,98662.00
2018-08-16T11:54:32.833Z,98666.00
2018-08-16T11:57:02.395Z,98652.00
2018-08-16T11:59:32.015Z,98650.00
2018-08-16T12:02:01.577Z,98658.00
2018-08-16T12:04:31.115Z,98644.00
2018-08-16T12:07:00.745Z,98656.00
2018-08-16T12:09:30.694Z,98647.00
2018-08-16T12:12:00.743Z,98641.00
2018-08-16T12:14:30.403Z,98643.00
2018-08-16T12:17:00.136Z,98640.00
2018-08-16T12:19:29.835Z,98638.00
2018-08-16T12:21:59.453Z,98636.00
2018-08-16T12:24:29.055Z,98639.00
2018-08-16T12:26:58.655Z,98629.00
2018-08-16T12:29:28.295Z,98621.00
2018-08-16T12:31:57.783Z,98627.00
2018-08-16T12:34:27.654Z,98626.00
2018-08-16T12:36:57.436Z,98622.00
2018-08-16T12:39:27.013Z,98618.00
2018-08-16T12:41:56.895Z,98620.00
2018-08-16T12:44:26.559Z,98618.00
2018-08-16T12:46:56.094Z,98609.00
2018-08-16T12:49:25.838Z,98609.00
2018-08-16T12:51:55.936Z,98603.00
2018-08-16T12:54:25.715Z,98596.00
2018-08-16T12:56:55.315Z,98606.00
2018-08-16T12:59:24.934Z,98597.00
2018-08-16T13:01:54.949Z,98597.00
2018-08-16T13:04:24.594Z,98592.00
2018-08-16T13:06:54.055Z,98582.00
2018-08-16T13:09:23.700Z,98577.00
2018-08-16T13:11:53.200Z,98586.00
2018-08-16T13:14:22.860Z,98583.00
2018-08-16T13:16:52.641Z,98584.00
2018-08-16T13:19:22.260Z,98583.00
2018-08-16T13:21:51.900Z,98580.00
2018-08-16T13:24:21.421Z,98570.00
2018-08-16T13:26:51.000Z,98571.00
2018-08-16T13:29:20.801Z,98570.00
2018-08-16T13:31:50.321Z,98570.00
2018-08-16T13:34:19.781Z,98561.00
2018-08-16T13:36:49.400Z,98563.00
2018-08-16T13:39:18.922Z,98553.00
2018-08-16T13:41:48.531Z,98554.00
2018-08-16T13:44:18.281Z,98554.00
2018-08-16T13:46:47.881Z,98553.00
2018-08-16T13:49:18.490Z,98550.00
2018-08-16T13:51:48.040Z,98547.00
2018-08-16T13:54:17.574Z,98547.00
2018-08-16T13:56:47.481Z,98547.00
2018-08-16T13:59:17.455Z,98541.00
2018-08-16T14:01:47.193Z,98540.00
2018-08-16T14:04:16.683Z,98537.00
2018-08-16T14:06:46.308Z,98538.00
2018-08-16T14:09:15.957Z,98522.00
2018-08-16T14:11:45.476Z,98531.00
2018-08-16T14:14:15.690Z,98531.00
2018-08-16T14:16:45.210Z,98539.00
2018-08-16T14:19:14.671Z,98531.00
2018-08-16T14:21:44.191Z,98536.00
2018-08-16T14:24:13.713Z,98526.00
2018-08-16T14:26:43.322Z,98526.00
2018-08-16T14:29:12.795Z,98520.00
2018-08-16T14:31:42.556Z,98508.00
2018-08-16T14:34:11.897Z,98516.00
2018-08-16T14:36:41.407Z,98511.00
2018-08-16T14:39:12.199Z,98510.00
2018-08-16T14:41:41.851Z,98506.00
2018-08-16T14:44:11.951Z,98506.00
2018-08-16T14:46:41.446Z,98507.00
2018-08-16T14:49:11.095Z,98495.00
2018-08-16T14:51:40.434Z,98491.00
2018-08-16T14:54:10.011Z,98486.00
2018-08-16T14:56:39.457Z,98482.00
2018-08-16T14:59:08.996Z,98484.00
2018-08-16T15:01:38.378Z,98487.00
2018-08-16T15:04:07.764Z,98489.00
2018-08-16T15:06:37.191Z,98488.00
2018-08-16T15:09:10.038Z,98485.00
2018-08-16T15:11:39.868Z,98487.00
2018-08-16T15:14:09.481Z,98482.00
2018-08-16T15:16:38.859Z,98476.00
2018-08-16T15:19:08.255Z,98476.00
2018-08-16T15:21:37.610Z,98483.00
2018-08-16T15:24:06.946Z,98481.00
2018-08-16T15:26:36.457Z,98478.00
2018-08-16T15:29:06.179Z,98477.00
2018-08-16T15:31:35.732Z,98472.00
2018-08-16T15:34:05.596Z,98472.00
2018-08-16T15:36:35.498Z,98477.00
2018-08-16T15:39:08.037Z,98469.00
2018-08-16T15:41:37.857Z,98474.00
2018-08-16T15:44:08.696Z,98466.00
2018-08-16T15:46:38.396Z,98468.00
2018-08-16T15:49:07.825Z,98462.00
2018-08-16T15:51:37.717Z,98460.00
2018-08-16T15:54:07.256Z,98462.00
2018-08-16T15:56:36.813Z,98455.00
2018-08-16T15:59:07.627Z,98458.00
2018-08-16T16:01:37.237Z,98453.00
2018-08-16T16:04:06.846Z,98449.00
2018-08-16T16:06:36.447Z,98446.00
2018-08-16T16:09:09.146Z,98449.00
2018-08-16T16:11:38.746Z,98436.00
2018-08-16T16:14:08.466Z,98445.00
2018-08-16T16:16:38.112Z,98436.00
2018-08-16T16:19:07.908Z,98441.00
2018-08-16T16:21:37.628Z,98442.00
2018-08-16T16:24:07.306Z,98441.00
2018-08-16T16:26:36.886Z,98436.00
2018-08-16T16:29:06.406Z,98432.00
2018-08-16T16:31:35.846Z,98427.00
2018-08-16T16:34:05.386Z,98433.00
2018-08-16T16:36:34.866Z,98425.00
2018-08-16T16:39:07.847Z,98429.00
2018-08-16T16:41:37.627Z,98429.00
2018-08-16T16:44:07.407Z,98429.00
2018-08-16T16:46:37.171Z,98431.00
2018-08-16T16:49:06.826Z,98424.00
2018-08-16T16:51:36.346Z,98424.00
2018-08-16T16:54:05.917Z,98429.00
2018-08-16T16:56:35.707Z,98423.00
2018-08-16T16:59:05.390Z,98418.00
2018-08-16T17:01:35.026Z,98422.00
2018-08-16T17:04:04.919Z,98420.00
2018-08-16T17:06:34.726Z,98416.00
2018-08-16T17:09:05.568Z,98417.00
2018-08-16T17:11:35.067Z,98421.00
2018-08-16T17:14:04.726Z,98422.00
2018-08-16T17:16:34.427Z,98413.00
2018-08-16T17:19:04.306Z,98411.00
2018-08-16T17:21:33.788Z,98414.00
2018-08-16T17:24:03.367Z,98415.00
2018-08-16T17:26:32.981Z,98419.00
2018-08-16T17:29:02.887Z,98419.00
2018-08-16T17:31:32.687Z,98417.00
2018-08-16T17:34:02.565Z,98414.00
2018-08-16T17:36:32.287Z,98416.00
2018-08-16T17:39:01.987Z,98422.00
2018-08-16T17:41:31.587Z,98423.00
2018-08-16T17:44:01.088Z,98422.00
2018-08-16T17:46:30.807Z,98420.00
2018-08-16T17:49:00.482Z,98418.00
2018-08-16T17:51:30.067Z,98414.00
2018-08-16T17:53:59.627Z,98416.00
2018-08-16T17:56:29.186Z,98413.00
2018-08-16T17:58:58.769Z,98414.00
2018-08-16T18:01:28.307Z,98423.00
2018-08-16T18:03:58.107Z,98420.00
2018-08-16T18:06:27.727Z,98418.00
2018-08-16T18:08:57.247Z,98424.00
2018-08-16T18:11:26.787Z,98423.00
2018-08-16T18:13:56.408Z,98425.00
2018-08-16T18:16:25.907Z,98423.00
2018-08-16T18:18:55.490Z,98427.00
2018-08-16T18:21:25.507Z,98425.00
2018-08-16T18:23:55.347Z,98423.00
2018-08-16T18:26:25.048Z,98424.00
2018-08-16T18:28:54.807Z,98420.00
2018-08-16T18:31:24.689Z,98427.00
2018-08-16T18:33:54.699Z,98432.00
2018-08-16T18:36:24.807Z,98447.00
2018-08-16T18:38:54.247Z,98445.00
2018-08-16T18:41:23.727Z,98446.00
2018-08-16T18:43:53.366Z,98446.00
2018-08-16T18:46:23.169Z,98446.00
2018-08-16T18:48:55.227Z,98445.00
2018-08-16T18:51:25.027Z,98454.00
2018-08-16T18:53:55.027Z,98453.00
2018-08-16T18:56:24.627Z,98457.00
2018-08-16T18:58:54.346Z,98453.00
2018-08-16T19:01:24.186Z,98464.00
2018-08-16T19:03:53.751Z,98465.00
2018-08-16T19:06:23.589Z,98461.00
2018-08-16T19:08:53.746Z,98463.00
2018-08-16T19:11:23.426Z,98467.00
2018-08-16T19:13:53.031Z,98466.00
2018-08-16T19:16:22.626Z,98468.00
2018-08-16T19:18:52.516Z,98466.00
2018-08-16T19:21:22.016Z,98461.00
2018-08-16T19:23:51.875Z,98459.00
2018-08-16T19:26:21.347Z,98462.00
2018-08-16T19:28:50.915Z,98461.00
2018-08-16T19:31:20.549Z,98466.00
2018-08-16T19:33:50.195Z,98455.00
2018-08-16T19:36:19.735Z,98457.00
2018-08-16T19:38:49.316Z,98461.00
2018-08-16T19:41:18.972Z,98453.00
2018-08-16T19:43:48.547Z,98455.00
2018-08-16T19:46:18.534Z,98455.00
2018-08-16T19:48:48.415Z,98460.00
2018-08-16T19:51:18.195Z,98456.00
2018-08-16T19:53:47.955Z,98443.00
2018-08-16T19:56:17.591Z,98448.00
2018-08-16T19:58:47.215Z,98443.00
2018-08-16T20:01:16.964Z,98446.00
2018-08-16T20:03:47.335Z,98445.00
2018-08-16T20:06:17.255Z,98446.00
2018-08-16T20:08:46.755Z,98448.00
2018-08-16T20:11:16.377Z,98452.00
2018-08-16T20:13:45.895Z,98452.00
2018-08-16T20:16:15.415Z,98451.00
2018-08-16T20:18:44.995Z,98454.00
2018-08-16T20:21:14.576Z,98447.00
2018-08-16T20:23:44.295Z,98454.00
2018-08-16T20:26:13.846Z,98459.00
2018-08-16T20:28:43.515Z,98460.00
2018-08-16T20:31:13.338Z,98454.00
2018-08-16T20:33:42.981Z,98463.00
2018-08-16T20:36:12.536Z,98457.00
2018-08-16T20:38:42.235Z,98458.00
2018-08-16T20:41:11.857Z,98459.00
2018-08-16T20:43:41.422Z,98462.00
2018-08-16T20:46:11.171Z,98461.00
2018-08-16T20:48:40.715Z,98456.00
2018-08-16T20:51:10.796Z,98456.00
2018-08-16T20:53:40.315Z,98456.00
2018-08-16T20:56:09.915Z,98462.00
2018-08-16T20:58:39.336Z,98459.00
2018-08-16T21:02:12.295Z,98456.00
2018-08-16T21:04:41.932Z,98447.00
2018-08-16T21:07:12.057Z,98444.00
2018-08-16T21:09:41.815Z,98452.00
2018-08-16T21:12:11.295Z,98459.00
2018-08-16T21:14:40.929Z,98457.00
2018-08-16T21:17:10.476Z,98451.00
2018-08-16T21:19:40.115Z,98457.00
2018-08-16T21:22:10.395Z,98451.00
2018-08-16T21:24:40.062Z,98460.00
2018-08-16T21:27:09.578Z,98465.00
2018-08-16T21:29:39.175Z,98459.00
2018-08-16T21:32:08.775Z,98455.00
2018-08-16T21:34:38.616Z,98450.00
2018-08-16T21:37:08.175Z,98449.00
2018-08-16T21:39:38.296Z,98450.00
2018-08-16T21:42:07.835Z,98451.00
2018-08-16T21:44:37.436Z,98455.00
2018-08-16T21:47:07.178Z,98448.00
2018-08-16T21:49:36.975Z,98451.00
2018-08-16T21:52:06.695Z,98452.00
2018-08-16T21:54:36.235Z,98452.00
2018-08-16T21:57:05.978Z,98445.00
2018-08-16T21:59:35.449Z,98447.00
2018-08-16T22:02:05.083Z,98449.00
2018-08-16T22:04:34.686Z,98449.00
2018-08-16T22:07:23.053Z,98444.00
2018-08-16T22:09:52.347Z,98449.00
2018-08-16T22:12:21.646Z,98442.00
2018-08-16T22:14:51.246Z,98448.00
2018-08-16T22:17:20.578Z,98447.00
2018-08-16T22:19:49.906Z,98441.00
2018-08-16T22:22:19.766Z,98446.00
2018-08-16T22:24:49.306Z,98447.00
2018-08-16T22:27:33.307Z,98443.00
2018-08-16T22:30:02.627Z,98446.00
2018-08-16T22:32:31.926Z,98446.00
2018-08-16T22:35:01.448Z,98449.00
2018-08-16T22:37:31.190Z,98449.00
2018-08-16T22:40:01.849Z,98448.00
2018-08-16T22:42:31.789Z,98449.00
2018-08-16T22:45:02.329Z,98451.00
2018-08-16T22:47:32.113Z,98451.00
2018-08-16T22:50:01.969Z,98442.00
2018-08-16T22:52:31.569Z,98443.00
2018-08-16T22:55:00.818Z,98432.00
2018-08-16T22:57:30.205Z,98434.00
2018-08-16T22:59:59.386Z,98441.00
2018-08-16T23:02:29.027Z,98438.00
2018-08-16T23:04:58.352Z,98432.00
2018-08-16T23:07:27.678Z,98440.00
2018-08-16T23:09:56.937Z,98436.00
2018-08-16T23:12:26.226Z,98430.00
2018-08-16T23:14:55.445Z,98431.00
2018-08-16T23:17:24.705Z,98432.00
2018-08-16T23:19:54.006Z,98430.00
2018-08-16T23:22:23.506Z,98431.00
2018-08-16T23:24:52.786Z,98435.00
2018-08-16T23:27:22.406Z,98439.00
2018-08-16T23:29:52.001Z,98430.00
2018-08-16T23:32:21.566Z,98438.00
2018-08-16T23:34:51.323Z,98432.00
2018-08-16T23:37:20.687Z,98436.00
2018-08-16T23:39:50.225Z,98432.00
2018-08-16T23:42:19.926Z,98427.00
2018-08-16T23:44:49.226Z,98423.00
2018-08-16T23:47:25.083Z,98430.00
2018-08-16T23:49:54.438Z,98424.00
2018-08-16T23:52:23.686Z,98423.00
2018-08-16T23:54:53.206Z,98420.00
2018-08-16T23:57:22.526Z,98422.00
2018-08-16T23:59:51.686Z,98417.00
